createdAt,value
2024-02-19T00:03:21.267Z,31.70
2024-02-19T00:08:25.084Z,33.60
2024-02-19T00:13:29.443Z,32.60
2024-02-19T00:18:33.276Z,37.20
2024-02-19T00:23:37.629Z,33.50
2024-02-19T00:28:41.555Z,33.10
2024-02-19T00:33:45.472Z,30.40
2024-02-19T00:38:49.493Z,33.60
2024-02-19T00:43:53.176Z,38.30
2024-02-19T00:48:57.185Z,35.30
2024-02-19T00:54:01.206Z,37.60
2024-02-19T00:59:04.974Z,42.30
2024-02-19T01:04:08.923Z,35.20
2024-02-19T01:09:12.976Z,36.50
2024-02-19T01:14:16.775Z,40.50
2024-02-19T01:19:20.667Z,39.40
2024-02-19T01:24:25.206Z,40.50
2024-02-19T01:29:29.025Z,35.50
2024-02-19T01:34:32.961Z,32.80
2024-02-19T01:39:36.877Z,38.70
2024-02-19T01:44:41.127Z,41.80
2024-02-19T01:49:45.463Z,35.70
2024-02-19T01:54:50.019Z,35.80
2024-02-19T01:59:55.228Z,40.10
2024-02-19T02:04:59.086Z,35.30
2024-02-19T02:10:06.086Z,37.60
2024-02-19T02:15:10.905Z,34.40
2024-02-19T02:20:15.125Z,36.80
2024-02-19T02:25:19.303Z,41.80
2024-02-19T02:30:23.399Z,43.60
2024-02-19T02:35:27.130Z,42.50
2024-02-19T02:40:31.701Z,40.40
2024-02-19T02:45:35.578Z,40.20
2024-02-19T02:50:39.308Z,45.20
2024-02-19T02:55:43.208Z,38.40
2024-02-19T03:00:47.179Z,34.90
2024-02-19T03:05:50.983Z,35.80
2024-02-19T03:10:54.974Z,33.90
2024-02-19T03:16:19.164Z,40.10
2024-02-19T03:21:23.044Z,38.20
2024-02-19T03:26:37.555Z,34.90
2024-02-19T03:31:44.973Z,44.70
2024-02-19T03:36:50.853Z,36.40
2024-02-19T03:41:54.912Z,39.20
2024-02-19T03:47:02.283Z,39.70
2024-02-19T03:52:07.668Z,37.90
2024-02-19T03:57:11.611Z,36.00
2024-02-19T04:02:15.275Z,39.40
2024-02-19T04:07:19.213Z,36.60
2024-02-19T04:12:23.131Z,35.30
2024-02-19T04:17:27.111Z,40.10
2024-02-19T04:22:30.955Z,35.50
2024-02-19T04:27:34.702Z,35.00
2024-02-19T04:32:38.637Z,38.00
2024-02-19T04:37:42.429Z,44.40
2024-02-19T04:42:46.125Z,34.50
2024-02-19T04:47:50.014Z,34.60
2024-02-19T04:52:53.839Z,42.60
2024-02-19T04:57:57.721Z,38.40
2024-02-19T05:03:01.506Z,36.60
2024-02-19T05:08:06.437Z,33.90
2024-02-19T05:13:10.392Z,36.10
2024-02-19T05:18:14.369Z,43.90
2024-02-19T05:23:18.398Z,37.30
2024-02-19T05:28:22.349Z,43.50
2024-02-19T05:33:26.096Z,43.90
2024-02-19T05:38:29.853Z,43.40
2024-02-19T05:43:33.673Z,37.10
2024-02-19T05:48:37.696Z,40.10
2024-02-19T05:53:41.688Z,38.20
2024-02-19T05:58:46.875Z,47.40
2024-02-19T06:03:50.592Z,43.90
2024-02-19T06:08:54.384Z,42.30
2024-02-19T06:13:58.322Z,40.50
2024-02-19T06:19:03.419Z,37.50
2024-02-19T06:24:07.932Z,39.80
2024-02-19T06:29:13.687Z,38.70
2024-02-19T06:34:17.626Z,40.10
2024-02-19T06:39:22.164Z,36.50
2024-02-19T06:44:26.286Z,40.70
2024-02-19T06:49:32.080Z,35.50
2024-02-19T06:54:37.258Z,39.20
2024-02-19T06:59:42.560Z,39.80
2024-02-19T07:04:47.179Z,47.00
2024-02-19T07:09:51.985Z,38.60
2024-02-19T07:14:56.240Z,34.90
2024-02-19T07:20:03.666Z,39.00
2024-02-19T07:25:16.593Z,38.50
2024-02-19T07:30:24.641Z,35.60
2024-02-19T07:35:40.376Z,38.40
2024-02-19T07:41:00.704Z,41.60
2024-02-19T07:46:05.778Z,44.50
2024-02-19T07:51:16.712Z,42.90
2024-02-19T07:56:21.185Z,43.70
2024-02-19T08:01:25.599Z,41.90
2024-02-19T08:06:30.136Z,46.20
2024-02-19T08:11:34.556Z,54.70
2024-02-19T08:16:40.343Z,46.40
2024-02-19T08:21:45.834Z,48.60
2024-02-19T08:26:50.444Z,49.80
2024-02-19T08:31:57.397Z,54.00
2024-02-19T08:37:01.681Z,49.40
2024-02-19T08:42:06.755Z,60.40
2024-02-19T08:47:11.773Z,45.90
2024-02-19T08:52:18.801Z,57.50
2024-02-19T08:57:26.625Z,55.80
2024-02-19T09:02:33.352Z,51.20
2024-02-19T09:07:37.774Z,51.00
2024-02-19T09:12:42.214Z,59.70
2024-02-19T09:17:46.520Z,56.30
2024-02-19T09:22:50.698Z,58.30
2024-02-19T09:27:54.991Z,50.90
2024-02-19T09:32:59.075Z,60.20
2024-02-19T09:38:03.405Z,59.30
2024-02-19T09:43:07.775Z,56.80
2024-02-19T09:48:13.638Z,61.70
2024-02-19T09:53:21.837Z,61.00
2024-02-19T09:58:27.768Z,54.30
2024-02-19T10:03:32.286Z,56.30
2024-02-19T10:08:36.855Z,55.70
2024-02-19T10:13:43.149Z,54.90
2024-02-19T10:18:47.430Z,50.30
2024-02-19T10:23:51.738Z,54.80
2024-02-19T10:28:58.274Z,48.90
2024-02-19T10:34:07.411Z,63.50
2024-02-19T10:39:11.461Z,59.90
2024-02-19T10:44:17.738Z,61.10
2024-02-19T10:49:22.223Z,61.00
2024-02-19T10:54:30.885Z,54.80
2024-02-19T10:59:39.598Z,60.30
2024-02-19T11:04:43.909Z,59.90
2024-02-19T11:09:58.603Z,52.90
2024-02-19T11:15:12.913Z,57.50
2024-02-19T11:20:26.142Z,58.20
2024-02-19T11:25:30.282Z,52.80
2024-02-19T11:30:34.406Z,59.90
2024-02-19T11:35:38.560Z,54.60
2024-02-19T11:40:43.053Z,55.70
2024-02-19T11:45:47.830Z,49.00
2024-02-19T11:50:58.699Z,53.50
2024-02-19T11:56:04.586Z,54.10
2024-02-19T12:01:10.043Z,57.40
2024-02-19T12:06:14.955Z,49.60
2024-02-19T12:11:19.157Z,55.30
2024-02-19T12:16:26.336Z,57.20
2024-02-19T12:21:30.966Z,48.80
2024-02-19T12:26:37.804Z,49.60
2024-02-19T12:31:44.760Z,48.70
2024-02-19T12:36:49.473Z,48.00
2024-02-19T12:41:53.981Z,43.60
2024-02-19T12:46:57.980Z,47.20
2024-02-19T12:52:03.800Z,45.10
2024-02-19T12:57:10.354Z,37.80
2024-02-19T13:02:16.988Z,42.50
2024-02-19T13:07:21.611Z,41.00
2024-02-19T13:12:26.374Z,46.20
2024-02-19T13:17:39.703Z,38.00
2024-02-19T13:22:54.488Z,34.70
2024-02-19T13:27:59.111Z,41.10
2024-02-19T13:33:07.204Z,41.00
2024-02-19T13:38:12.623Z,35.40
2024-02-19T13:43:17.181Z,31.10
2024-02-19T13:48:24.889Z,32.90
2024-02-19T13:53:30.383Z,33.90
2024-02-19T13:58:35.294Z,36.10
2024-02-19T14:03:39.603Z,30.50
2024-02-19T14:08:44.367Z,25.50
2024-02-19T14:13:58.026Z,25.20
2024-02-19T14:19:06.086Z,24.90
2024-02-19T14:24:10.034Z,22.00
2024-02-19T14:29:14.009Z,22.30
2024-02-19T14:34:18.095Z,23.50
2024-02-19T14:39:22.966Z,21.70
2024-02-19T14:44:26.980Z,32.10
2024-02-19T14:49:31.649Z,20.00
2024-02-19T14:54:38.772Z,17.60
2024-02-19T14:59:42.940Z,18.00
2024-02-19T15:04:47.155Z,18.80
2024-02-19T15:09:51.017Z,19.10
2024-02-19T15:14:55.273Z,18.20
2024-02-19T15:19:59.305Z,9.80
2024-02-19T15:25:05.654Z,9.40
2024-02-19T15:30:13.311Z,5.10
2024-02-19T15:35:18.558Z,7.60
2024-02-19T15:40:24.460Z,6.10
2024-02-19T15:45:29.247Z,2.40
2024-02-19T15:50:39.624Z,2.90
2024-02-19T15:55:44.951Z,3.40
2024-02-19T16:01:07.861Z,1.70
2024-02-19T16:06:13.722Z,2.20
2024-02-19T16:11:23.915Z,1.80
2024-02-19T16:16:31.172Z,3.40
2024-02-19T16:21:35.664Z,0.90
2024-02-19T16:26:39.839Z,1.10
2024-02-19T16:31:43.821Z,3.00
2024-02-19T16:36:47.841Z,1.90
2024-02-19T16:41:51.921Z,2.00
2024-02-19T16:47:04.132Z,4.00
2024-02-19T16:52:08.990Z,2.80
2024-02-19T16:57:22.292Z,1.70
2024-02-19T17:02:28.772Z,1.80
2024-02-19T17:07:33.402Z,1.60
2024-02-19T17:12:37.671Z,2.30
2024-02-19T17:17:42.052Z,3.20
2024-02-19T17:22:47.269Z,1.90
2024-02-19T17:27:51.561Z,2.00
2024-02-19T17:32:56.133Z,1.70
2024-02-19T17:38:00.164Z,3.20
2024-02-19T17:43:05.238Z,3.00
2024-02-19T17:48:13.876Z,1.70
2024-02-19T17:53:18.703Z,1.60
2024-02-19T17:58:22.833Z,4.50
2024-02-19T18:03:28.826Z,2.80
2024-02-19T18:08:33.718Z,1.90
2024-02-19T18:13:37.775Z,2.60
2024-02-19T18:18:43.526Z,1.90
2024-02-19T18:23:49.211Z,3.20
2024-02-19T18:28:56.732Z,3.80
2024-02-19T18:34:01.383Z,2.10
2024-02-19T18:39:07.183Z,7.20
2024-02-19T18:44:11.302Z,2.10
2024-02-19T18:49:16.826Z,3.60
2024-02-19T18:54:27.705Z,2.50
2024-02-19T18:59:43.548Z,4.40
2024-02-19T19:04:49.051Z,3.50
2024-02-19T19:09:53.573Z,2.60
2024-02-19T19:14:59.259Z,4.20
2024-02-19T19:20:09.759Z,2.80
2024-02-19T19:25:14.933Z,4.70
2024-02-19T19:30:19.104Z,4.60
2024-02-19T19:35:24.599Z,3.10
2024-02-19T19:40:28.722Z,10.70
2024-02-19T19:45:33.073Z,4.20
2024-02-19T19:50:38.384Z,3.90
2024-02-19T19:55:42.616Z,5.20
2024-02-19T20:00:47.529Z,2.20
2024-02-19T20:05:51.676Z,2.40
2024-02-19T20:10:59.418Z,4.10
2024-02-19T20:16:04.023Z,4.10
2024-02-19T20:21:10.963Z,3.90
2024-02-19T20:26:18.681Z,2.10
2024-02-19T20:31:22.802Z,3.80
2024-02-19T20:36:26.768Z,1.80
2024-02-19T20:41:34.166Z,10.00
2024-02-19T20:46:38.413Z,1.60
2024-02-19T20:51:47.137Z,2.30
2024-02-19T21:02:55.473Z,2.20
2024-02-19T21:08:00.878Z,2.30
2024-02-19T21:13:06.339Z,2.20
2024-02-19T21:18:12.904Z,1.90
2024-02-19T21:23:17.009Z,2.20
2024-02-19T21:28:21.375Z,4.40
2024-02-19T21:33:26.182Z,2.20
2024-02-19T21:38:30.298Z,3.50
2024-02-19T21:43:34.506Z,2.90
2024-02-19T21:48:41.475Z,3.60
2024-02-19T21:53:45.875Z,6.60
2024-02-19T21:58:51.468Z,3.20
2024-02-19T22:03:57.065Z,8.10
2024-02-19T22:09:02.008Z,2.90
2024-02-19T22:14:07.807Z,3.60
2024-02-19T22:19:18.171Z,2.50
2024-02-19T22:24:26.197Z,1.50
2024-02-19T22:29:33.313Z,3.60
2024-02-19T22:34:41.338Z,2.70
2024-02-19T22:39:48.851Z,4.70
2024-02-19T22:44:54.997Z,2.50
2024-02-19T22:50:02.366Z,2.20
2024-02-19T22:55:39.533Z,5.80
2024-02-19T23:00:54.053Z,3.80
2024-02-19T23:05:58.566Z,3.10
2024-02-19T23:11:03.094Z,3.10
2024-02-19T23:16:08.524Z,4.50
2024-02-19T23:21:16.761Z,4.20
2024-02-19T23:26:21.077Z,4.20
2024-02-19T23:31:27.165Z,5.90
2024-02-19T23:36:37.676Z,4.20
2024-02-19T23:41:41.819Z,6.90
2024-02-19T23:46:45.672Z,8.20
2024-02-19T23:51:50.169Z,9.70
2024-02-19T23:57:02.288Z,11.70
